createdAt,value
2023-05-02T00:04:29.708Z,7.53
2023-05-02T00:09:15.200Z,7.55
2023-05-02T00:13:40.595Z,7.57
2023-05-02T00:18:22.803Z,7.50
2023-05-02T00:22:54.003Z,7.49
2023-05-02T00:27:36.905Z,7.45
2023-05-02T00:32:43.915Z,7.35
2023-05-02T00:37:54.281Z,7.29
2023-05-02T00:42:27.331Z,7.20
2023-05-02T00:46:52.359Z,7.28
2023-05-02T00:52:04.290Z,7.37
2023-05-02T00:56:34.512Z,7.43
2023-05-02T01:01:22.347Z,7.35
2023-05-02T01:06:08.634Z,7.28
2023-05-02T01:11:25.560Z,7.23
2023-05-02T01:16:09.657Z,7.22
2023-05-02T01:21:04.048Z,7.20
2023-05-02T01:25:56.765Z,7.23
2023-05-02T01:30:27.106Z,7.28
2023-05-02T01:35:24.810Z,7.33
2023-05-02T01:39:50.043Z,7.39
2023-05-02T01:44:42.743Z,7.45
2023-05-02T01:49:14.886Z,7.43
2023-05-02T01:54:02.658Z,7.37
2023-05-02T01:58:36.256Z,7.37
2023-05-02T02:03:34.724Z,7.37
2023-05-02T02:08:02.391Z,7.33
2023-05-02T02:12:27.063Z,7.25
2023-05-02T02:16:59.587Z,7.22
2023-05-02T02:21:59.909Z,7.17
2023-05-02T02:26:36.103Z,7.11
2023-05-02T02:31:07.031Z,7.13
2023-05-02T02:35:44.924Z,7.20
2023-05-02T02:40:18.258Z,7.28
2023-05-02T02:44:52.810Z,7.33
2023-05-02T02:49:30.831Z,7.29
2023-05-02T02:54:46.737Z,7.22
2023-05-02T02:59:42.842Z,7.21
2023-05-02T03:04:15.166Z,7.16
2023-05-02T03:09:09.642Z,7.13
2023-05-02T03:14:00.177Z,7.05
2023-05-02T03:18:37.802Z,7.09
2023-05-02T03:23:22.902Z,7.06
2023-05-02T03:28:27.341Z,7.17
2023-05-02T03:32:56.117Z,7.27
2023-05-02T03:37:20.967Z,7.25
2023-05-02T03:41:46.786Z,7.22
2023-05-02T03:46:18.887Z,7.21
2023-05-02T03:50:52.698Z,7.22
2023-05-02T03:55:40.072Z,7.21
2023-05-02T04:00:43.712Z,7.20
2023-05-02T04:05:08.719Z,7.26
2023-05-02T04:10:00.305Z,7.30
2023-05-02T04:14:50.170Z,7.27
2023-05-02T04:19:13.218Z,7.29
2023-05-02T04:24:10.931Z,7.39
2023-05-02T04:28:40.486Z,7.49
2023-05-02T04:33:05.502Z,7.56
2023-05-02T04:38:11.333Z,7.62
2023-05-02T04:42:36.987Z,7.66
2023-05-02T04:47:20.953Z,7.76
2023-05-02T04:52:15.507Z,7.82
2023-05-02T04:56:54.246Z,7.93
2023-05-02T05:02:06.888Z,8.19
2023-05-02T05:07:23.199Z,8.48
2023-05-02T05:11:57.658Z,8.79
2023-05-02T05:16:44.909Z,9.07
2023-05-02T05:21:23.902Z,9.27
2023-05-02T05:26:13.988Z,9.43
2023-05-02T05:30:42.451Z,9.63
2023-05-02T05:35:33.655Z,9.89
2023-05-02T05:40:23.611Z,10.24
2023-05-02T05:44:57.983Z,10.55
2023-05-02T05:50:07.171Z,10.93
2023-05-02T05:54:35.198Z,11.21
2023-05-02T05:58:59.816Z,11.53
2023-05-02T06:03:24.599Z,11.83
2023-05-02T06:07:57.605Z,12.08
2023-05-02T06:12:21.506Z,12.31
2023-05-02T06:16:54.406Z,12.59
2023-05-02T06:21:27.968Z,12.94
2023-05-02T06:26:06.012Z,13.27
2023-05-02T06:30:41.134Z,13.65
2023-05-02T06:35:06.138Z,14.06
2023-05-02T06:39:41.852Z,14.58
2023-05-02T06:44:20.866Z,15.07
2023-05-02T06:48:54.579Z,15.54
2023-05-02T06:53:37.023Z,16.00
2023-05-02T06:58:06.816Z,16.35
2023-05-02T07:02:58.583Z,16.72
2023-05-02T07:07:23.433Z,17.07
2023-05-02T07:11:59.382Z,17.32
2023-05-02T07:16:42.572Z,17.57
2023-05-02T07:21:07.658Z,17.72
2023-05-02T07:26:06.197Z,17.74
2023-05-02T07:30:30.421Z,17.91
2023-05-02T07:35:07.062Z,18.14
2023-05-02T07:39:33.954Z,18.21
2023-05-02T07:43:59.982Z,18.33
2023-05-02T07:48:26.125Z,18.57
2023-05-02T07:53:05.025Z,18.72
2023-05-02T07:57:28.925Z,18.61
2023-05-02T08:02:06.594Z,18.32
2023-05-02T08:06:34.364Z,18.09
2023-05-02T08:11:20.465Z,17.71
2023-05-02T08:20:44.482Z,17.06
2023-05-02T08:25:20.465Z,16.73
2023-05-02T08:30:18.405Z,16.56
2023-05-02T08:34:48.443Z,16.54
2023-05-02T08:39:23.555Z,16.60
2023-05-02T08:43:40.182Z,16.76
2023-05-02T08:48:11.176Z,16.87
2023-05-02T08:52:36.169Z,17.13
2023-05-02T08:57:07.168Z,17.59
2023-05-02T09:01:31.178Z,18.39
2023-05-02T09:05:55.154Z,18.73
2023-05-02T09:10:16.683Z,18.70
2023-05-02T09:15:08.429Z,18.77
2023-05-02T09:24:38.580Z,19.95
2023-05-02T09:29:27.519Z,20.19
2023-05-02T09:33:57.124Z,20.44
2023-05-02T09:38:39.234Z,20.53
2023-05-02T09:43:03.217Z,20.21
2023-05-02T09:47:52.574Z,20.03
2023-05-02T09:52:24.704Z,19.74
2023-05-02T10:02:01.032Z,19.71
2023-05-02T10:06:32.374Z,19.56
2023-05-02T10:10:58.412Z,19.38
2023-05-02T10:15:23.292Z,19.25
2023-05-02T10:24:53.766Z,19.28
2023-05-02T10:30:06.904Z,19.33
2023-05-02T10:34:33.812Z,19.19
2023-05-02T10:39:06.558Z,19.17
2023-05-02T10:48:49.262Z,18.96
2023-05-02T10:58:39.000Z,18.63
2023-05-02T11:03:25.560Z,18.46
2023-05-02T11:08:00.549Z,18.24
2023-05-02T11:12:51.124Z,18.10
2023-05-02T11:17:59.077Z,18.07
2023-05-02T11:22:14.581Z,18.05
2023-05-02T11:27:15.045Z,18.08
2023-05-02T11:31:42.587Z,18.12
2023-05-02T11:36:16.348Z,18.17
2023-05-02T11:40:54.243Z,18.23
2023-05-02T11:45:12.809Z,18.33
2023-05-02T11:49:43.681Z,18.34
2023-05-02T11:54:14.268Z,18.37
2023-05-02T11:58:56.022Z,18.43
2023-05-02T12:03:41.435Z,18.57
2023-05-02T12:08:07.669Z,18.72
2023-05-02T12:12:30.522Z,18.82
2023-05-02T12:16:54.439Z,19.12
2023-05-02T12:21:25.420Z,19.66
2023-05-02T12:25:53.544Z,19.85
2023-05-02T12:30:26.530Z,20.00
2023-05-02T12:34:58.651Z,20.17
2023-05-02T12:39:32.464Z,20.25
2023-05-02T12:44:35.839Z,20.36
2023-05-02T12:49:28.362Z,20.35
2023-05-02T12:54:06.671Z,20.21
2023-05-02T12:58:54.707Z,20.20
2023-05-02T13:03:32.447Z,20.22
2023-05-02T13:08:02.177Z,20.33
2023-05-02T13:12:53.695Z,20.35
2023-05-02T13:17:49.569Z,20.43
2023-05-02T13:22:31.809Z,20.51
2023-05-02T13:27:02.724Z,20.52
2023-05-02T13:36:54.365Z,20.56
2023-05-02T13:41:29.392Z,20.61
2023-05-02T13:45:55.419Z,20.62
2023-05-02T13:50:27.382Z,20.49
2023-05-02T13:54:57.153Z,20.41
2023-05-02T13:59:26.811Z,20.42
2023-05-02T14:03:49.916Z,20.43
2023-05-02T14:08:23.297Z,20.44
2023-05-02T14:12:58.764Z,20.42
2023-05-02T14:22:35.311Z,20.25
2023-05-02T14:27:06.804Z,20.26
2023-05-02T14:31:47.487Z,20.25
2023-05-02T14:36:13.509Z,20.23
2023-05-02T14:46:24.467Z,20.02
2023-05-02T14:50:46.911Z,19.93
2023-05-02T14:55:10.813Z,19.86
2023-05-02T14:59:53.708Z,19.87
2023-05-02T15:04:37.779Z,19.89
2023-05-02T15:09:02.668Z,19.84
2023-05-02T15:13:29.457Z,19.74
2023-05-02T15:17:59.249Z,19.59
2023-05-02T15:28:07.611Z,19.26
2023-05-02T15:32:31.568Z,19.16
2023-05-02T15:37:22.758Z,19.07
2023-05-02T15:42:00.910Z,19.01
2023-05-02T15:46:26.892Z,18.98
2023-05-02T15:51:10.640Z,18.90
2023-05-02T15:55:36.550Z,18.91
2023-05-02T16:00:08.492Z,19.01
2023-05-02T16:04:49.022Z,19.10
2023-05-02T16:09:33.927Z,19.17
2023-05-02T16:14:17.604Z,19.20
2023-05-02T16:18:49.919Z,19.23
2023-05-02T16:23:13.853Z,19.23
2023-05-02T16:27:44.664Z,19.23
2023-05-02T16:32:22.556Z,19.21
2023-05-02T16:37:01.826Z,19.19
2023-05-02T16:41:09.518Z,19.18
2023-05-02T16:45:49.657Z,19.10
2023-05-02T16:50:13.584Z,18.96
2023-05-02T16:55:09.596Z,18.83
2023-05-02T16:59:33.530Z,18.75
2023-05-02T17:04:13.867Z,18.61
2023-05-02T17:08:53.855Z,18.41
2023-05-02T17:13:55.261Z,18.20
2023-05-02T17:18:24.880Z,18.03
2023-05-02T17:22:59.714Z,17.90
2023-05-02T17:27:32.466Z,17.76
2023-05-02T17:31:58.463Z,17.59
2023-05-02T17:36:22.286Z,17.40
2023-05-02T17:40:47.440Z,17.22
2023-05-02T17:45:21.958Z,17.05
2023-05-02T17:49:45.217Z,16.89
2023-05-02T17:54:13.109Z,16.74
2023-05-02T18:03:37.767Z,16.37
2023-05-02T18:08:06.995Z,16.26
2023-05-02T18:12:55.677Z,16.08
2023-05-02T18:17:20.675Z,16.00
2023-05-02T18:22:00.590Z,15.91
2023-05-02T18:26:26.456Z,15.80
2023-05-02T18:30:50.944Z,15.69
2023-05-02T18:35:44.803Z,15.57
2023-05-02T18:40:19.669Z,15.55
2023-05-02T18:44:49.365Z,15.52
2023-05-02T18:49:23.050Z,15.46
2023-05-02T18:53:59.916Z,15.40
2023-05-02T18:58:34.761Z,15.34
2023-05-02T19:03:13.703Z,15.28
2023-05-02T19:07:38.439Z,15.22
2023-05-02T19:12:10.623Z,15.18
2023-05-02T19:16:37.807Z,15.15
2023-05-02T19:21:10.760Z,15.09
2023-05-02T19:25:34.660Z,15.02
2023-05-02T19:30:04.645Z,14.97
2023-05-02T19:34:39.858Z,14.94
2023-05-02T19:39:11.698Z,14.92
2023-05-02T19:43:47.381Z,14.86
2023-05-02T19:48:22.322Z,14.80
2023-05-02T19:53:13.751Z,14.73
2023-05-02T19:57:51.854Z,14.68
2023-05-02T20:02:29.733Z,14.67
2023-05-02T20:06:53.721Z,14.69
2023-05-02T20:11:51.992Z,14.63
2023-05-02T20:16:26.921Z,14.60
2023-05-02T20:21:00.086Z,14.59
2023-05-02T20:25:29.798Z,14.50
2023-05-02T20:30:04.555Z,14.38
2023-05-02T20:34:36.672Z,14.31
2023-05-02T20:39:04.676Z,14.18
2023-05-02T20:43:36.147Z,14.10
2023-05-02T20:48:05.930Z,14.10
2023-05-02T20:52:41.925Z,13.99
2023-05-02T20:57:11.944Z,13.94
2023-05-02T21:01:35.958Z,13.81
2023-05-02T21:06:05.755Z,13.73
2023-05-02T21:10:58.453Z,13.62
2023-05-02T21:15:30.138Z,13.53
2023-05-02T21:20:02.957Z,13.44
2023-05-02T21:24:31.135Z,13.39
2023-05-02T21:29:06.986Z,13.33
2023-05-02T21:33:34.898Z,13.22
2023-05-02T21:37:58.740Z,13.21
2023-05-02T21:42:26.979Z,13.15
2023-05-02T21:46:50.109Z,13.06
2023-05-02T21:51:14.360Z,13.02
2023-05-02T21:56:00.965Z,12.96
2023-05-02T22:00:24.865Z,12.98
2023-05-02T22:04:52.919Z,13.01
2023-05-02T22:09:17.405Z,13.01
2023-05-02T22:13:41.192Z,12.97
2023-05-02T22:18:05.617Z,12.88
2023-05-02T22:22:29.654Z,12.77
2023-05-02T22:26:47.439Z,12.63
2023-05-02T22:31:11.424Z,12.58
2023-05-02T22:35:41.169Z,12.57
2023-05-02T22:40:06.087Z,12.53
2023-05-02T22:44:33.768Z,12.54
2023-05-02T22:49:01.914Z,12.53
2023-05-02T22:53:24.767Z,12.53
2023-05-02T22:57:51.636Z,12.60
2023-05-02T23:02:15.638Z,12.61
2023-05-02T23:06:47.049Z,12.64
2023-05-02T23:11:13.175Z,12.63
2023-05-02T23:15:38.219Z,12.61
2023-05-02T23:20:03.361Z,12.63
2023-05-02T23:24:36.956Z,12.61
2023-05-02T23:29:01.988Z,12.63
2023-05-02T23:33:31.640Z,12.62
2023-05-02T23:38:01.328Z,12.63
2023-05-02T23:42:25.196Z,12.65
2023-05-02T23:46:49.211Z,12.70
2023-05-02T23:51:14.195Z,12.67
2023-05-02T23:55:38.189Z,12.60
